sensor_id;sensor_type;location;lat;lon;timestamp;P1;durP1;ratioP1;P2;durP2;ratioP2
60722;SDS011;46574;52.818;6.516;2023-02-03T00:01:30;7.88;;;2.45;;
60722;SDS011;46574;52.818;6.516;2023-02-03T00:03:56;10.60;;;2.83;;
60722;SDS011;46574;52.818;6.516;2023-02-03T00:06:21;4.57;;;2.50;;
60722;SDS011;46574;52.818;6.516;2023-02-03T00:08:47;5.30;;;2.08;;
60722;SDS011;46574;52.818;6.516;2023-02-03T00:11:14;6.10;;;2.03;;
60722;SDS011;46574;52.818;6.516;2023-02-03T00:13:39;7.80;;;2.38;;
60722;SDS011;46574;52.818;6.516;2023-02-03T00:16:05;7.72;;;2.28;;
60722;SDS011;46574;52.818;6.516;2023-02-03T00:18:31;8.52;;;2.28;;
60722;SDS011;46574;52.818;6.516;2023-02-03T00:20:57;6.93;;;1.80;;
60722;SDS011;46574;52.818;6.516;2023-02-03T00:23:23;6.20;;;2.13;;
60722;SDS011;46574;52.818;6.516;2023-02-03T00:25:50;5.25;;;2.08;;
60722;SDS011;46574;52.818;6.516;2023-02-03T00:28:16;7.43;;;2.10;;
60722;SDS011;46574;52.818;6.516;2023-02-03T00:30:43;4.22;;;2.00;;
60722;SDS011;46574;52.818;6.516;2023-02-03T00:33:08;8.57;;;2.88;;
60722;SDS011;46574;52.818;6.516;2023-02-03T00:35:36;5.43;;;2.28;;
60722;SDS011;46574;52.818;6.516;2023-02-03T00:38:03;8.70;;;2.40;;
60722;SDS011;46574;52.818;6.516;2023-02-03T00:40:29;9.18;;;3.10;;
60722;SDS011;46574;52.818;6.516;2023-02-03T00:42:55;8.38;;;3.20;;
60722;SDS011;46574;52.818;6.516;2023-02-03T00:45:20;7.95;;;3.30;;
60722;SDS011;46574;52.818;6.516;2023-02-03T00:47:46;9.43;;;3.72;;
60722;SDS011;46574;52.818;6.516;2023-02-03T00:50:12;8.80;;;3.15;;
60722;SDS011;46574;52.818;6.516;2023-02-03T00:52:38;9.48;;;4.00;;
60722;SDS011;46574;52.818;6.516;2023-02-03T00:55:04;10.30;;;3.58;;
60722;SDS011;46574;52.818;6.516;2023-02-03T00:57:30;7.40;;;3.63;;
60722;SDS011;46574;52.818;6.516;2023-02-03T00:59:56;8.52;;;3.88;;
60722;SDS011;46574;52.818;6.516;2023-02-03T01:02:22;11.15;;;3.97;;
60722;SDS011;46574;52.818;6.516;2023-02-03T01:04:49;12.00;;;4.13;;
60722;SDS011;46574;52.818;6.516;2023-02-03T01:07:14;9.93;;;4.00;;
60722;SDS011;46574;52.818;6.516;2023-02-03T01:09:40;10.48;;;4.13;;
60722;SDS011;46574;52.818;6.516;2023-02-03T01:12:06;7.43;;;3.83;;
60722;SDS011;46574;52.818;6.516;2023-02-03T01:14:32;10.30;;;3.75;;
60722;SDS011;46574;52.818;6.516;2023-02-03T01:16:59;10.90;;;3.90;;
60722;SDS011;46574;52.818;6.516;2023-02-03T01:19:24;10.00;;;3.50;;
60722;SDS011;46574;52.818;6.516;2023-02-03T01:21:50;8.45;;;3.70;;
60722;SDS011;46574;52.818;6.516;2023-02-03T01:24:16;8.65;;;3.85;;
60722;SDS011;46574;52.818;6.516;2023-02-03T01:26:42;12.02;;;4.50;;
60722;SDS011;46574;52.818;6.516;2023-02-03T01:29:08;7.88;;;3.55;;
60722;SDS011;46574;52.818;6.516;2023-02-03T01:31:35;8.93;;;3.17;;
60722;SDS011;46574;52.818;6.516;2023-02-03T01:34:04;10.98;;;3.45;;
60722;SDS011;46574;52.818;6.516;2023-02-03T01:36:31;11.40;;;3.67;;
60722;SDS011;46574;52.818;6.516;2023-02-03T01:38:59;11.82;;;3.60;;
60722;SDS011;46574;52.818;6.516;2023-02-03T01:41:26;11.57;;;3.60;;
60722;SDS011;46574;52.818;6.516;2023-02-03T01:43:53;15.52;;;4.25;;
60722;SDS011;46574;52.818;6.516;2023-02-03T01:48:52;9.20;;;3.47;;
60722;SDS011;46574;52.818;6.516;2023-02-03T01:51:22;10.82;;;3.90;;
60722;SDS011;46574;52.818;6.516;2023-02-03T01:53:48;12.00;;;3.90;;
60722;SDS011;46574;52.818;6.516;2023-02-03T01:56:17;9.23;;;3.55;;
60722;SDS011;46574;52.818;6.516;2023-02-03T01:58:42;13.27;;;4.35;;
60722;SDS011;46574;52.818;6.516;2023-02-03T02:01:11;12.45;;;4.07;;
60722;SDS011;46574;52.818;6.516;2023-02-03T02:03:37;9.60;;;3.67;;
60722;SDS011;46574;52.818;6.516;2023-02-03T02:06:10;12.07;;;3.90;;
60722;SDS011;46574;52.818;6.516;2023-02-03T02:08:38;12.13;;;3.85;;
60722;SDS011;46574;52.818;6.516;2023-02-03T02:11:06;11.52;;;3.85;;
60722;SDS011;46574;52.818;6.516;2023-02-03T02:13:33;10.55;;;3.30;;
60722;SDS011;46574;52.818;6.516;2023-02-03T02:24:06;10.40;;;3.20;;
60722;SDS011;46574;52.818;6.516;2023-02-03T02:26:55;11.60;;;3.78;;
60722;SDS011;46574;52.818;6.516;2023-02-03T02:29:39;5.43;;;2.67;;
60722;SDS011;46574;52.818;6.516;2023-02-03T02:32:29;7.47;;;3.03;;
60722;SDS011;46574;52.818;6.516;2023-02-03T02:37:48;7.97;;;2.72;;
60722;SDS011;46574;52.818;6.516;2023-02-03T02:40:22;7.57;;;2.70;;
60722;SDS011;46574;52.818;6.516;2023-02-03T02:42:56;7.75;;;2.90;;
60722;SDS011;46574;52.818;6.516;2023-02-03T02:45:50;9.48;;;3.42;;
60722;SDS011;46574;52.818;6.516;2023-02-03T02:48:36;7.75;;;2.95;;
60722;SDS011;46574;52.818;6.516;2023-02-03T02:51:05;6.88;;;2.50;;
60722;SDS011;46574;52.818;6.516;2023-02-03T02:53:37;10.45;;;3.00;;
60722;SDS011;46574;52.818;6.516;2023-02-03T02:56:07;7.00;;;2.40;;
60722;SDS011;46574;52.818;6.516;2023-02-03T02:58:35;6.75;;;2.42;;
60722;SDS011;46574;52.818;6.516;2023-02-03T03:01:04;6.47;;;2.53;;
60722;SDS011;46574;52.818;6.516;2023-02-03T03:03:32;7.07;;;2.33;;
60722;SDS011;46574;52.818;6.516;2023-02-03T03:06:01;8.18;;;2.83;;
60722;SDS011;46574;52.818;6.516;2023-02-03T03:08:43;6.20;;;2.25;;
60722;SDS011;46574;52.818;6.516;2023-02-03T03:11:12;8.00;;;3.08;;
60722;SDS011;46574;52.818;6.516;2023-02-03T03:13:43;8.48;;;3.00;;
60722;SDS011;46574;52.818;6.516;2023-02-03T03:16:16;8.75;;;2.85;;
60722;SDS011;46574;52.818;6.516;2023-02-03T03:18:48;8.45;;;2.47;;
60722;SDS011;46574;52.818;6.516;2023-02-03T03:21:23;5.22;;;2.65;;
60722;SDS011;46574;52.818;6.516;2023-02-03T03:23:52;6.47;;;2.30;;
60722;SDS011;46574;52.818;6.516;2023-02-03T03:29:06;10.40;;;2.90;;
60722;SDS011;46574;52.818;6.516;2023-02-03T03:34:04;8.02;;;2.33;;
60722;SDS011;46574;52.818;6.516;2023-02-03T03:39:23;9.80;;;2.58;;
60722;SDS011;46574;52.818;6.516;2023-02-03T03:42:08;8.52;;;2.67;;
60722;SDS011;46574;52.818;6.516;2023-02-03T03:45:09;7.88;;;2.92;;
60722;SDS011;46574;52.818;6.516;2023-02-03T03:47:55;7.22;;;2.30;;
60722;SDS011;46574;52.818;6.516;2023-02-03T03:50:35;8.73;;;2.88;;
60722;SDS011;46574;52.818;6.516;2023-02-03T03:53:07;6.05;;;2.40;;
60722;SDS011;46574;52.818;6.516;2023-02-03T03:55:34;7.93;;;3.03;;
60722;SDS011;46574;52.818;6.516;2023-02-03T03:58:03;6.78;;;2.17;;
60722;SDS011;46574;52.818;6.516;2023-02-03T04:00:32;7.50;;;2.45;;
60722;SDS011;46574;52.818;6.516;2023-02-03T04:03:16;9.50;;;2.33;;
60722;SDS011;46574;52.818;6.516;2023-02-03T04:05:45;9.00;;;2.55;;
60722;SDS011;46574;52.818;6.516;2023-02-03T04:08:12;8.57;;;2.50;;
60722;SDS011;46574;52.818;6.516;2023-02-03T04:10:38;9.07;;;2.42;;
60722;SDS011;46574;52.818;6.516;2023-02-03T04:13:07;9.43;;;2.40;;
60722;SDS011;46574;52.818;6.516;2023-02-03T04:15:34;7.82;;;2.55;;
60722;SDS011;46574;52.818;6.516;2023-02-03T04:18:00;9.15;;;2.83;;
60722;SDS011;46574;52.818;6.516;2023-02-03T04:20:27;7.82;;;2.38;;
60722;SDS011;46574;52.818;6.516;2023-02-03T04:22:54;10.68;;;2.50;;
60722;SDS011;46574;52.818;6.516;2023-02-03T04:25:19;7.65;;;2.75;;
60722;SDS011;46574;52.818;6.516;2023-02-03T04:27:45;7.90;;;2.60;;
60722;SDS011;46574;52.818;6.516;2023-02-03T04:30:11;7.95;;;2.50;;
60722;SDS011;46574;52.818;6.516;2023-02-03T04:32:37;11.55;;;3.67;;
60722;SDS011;46574;52.818;6.516;2023-02-03T04:35:03;7.20;;;2.47;;
60722;SDS011;46574;52.818;6.516;2023-02-03T04:37:30;7.60;;;2.20;;
60722;SDS011;46574;52.818;6.516;2023-02-03T04:39:57;8.30;;;2.15;;
60722;SDS011;46574;52.818;6.516;2023-02-03T04:42:23;8.55;;;2.10;;
60722;SDS011;46574;52.818;6.516;2023-02-03T04:44:49;7.45;;;2.38;;
60722;SDS011;46574;52.818;6.516;2023-02-03T04:47:15;7.05;;;2.47;;
60722;SDS011;46574;52.818;6.516;2023-02-03T04:49:42;6.30;;;2.38;;
60722;SDS011;46574;52.818;6.516;2023-02-03T04:52:08;8.35;;;2.10;;
60722;SDS011;46574;52.818;6.516;2023-02-03T04:54:33;10.65;;;2.70;;
60722;SDS011;46574;52.818;6.516;2023-02-03T04:56:59;7.65;;;2.53;;
60722;SDS011;46574;52.818;6.516;2023-02-03T04:59:25;9.10;;;2.42;;
60722;SDS011;46574;52.818;6.516;2023-02-03T05:01:50;9.18;;;3.20;;
60722;SDS011;46574;52.818;6.516;2023-02-03T05:04:16;8.18;;;2.33;;
60722;SDS011;46574;52.818;6.516;2023-02-03T05:06:42;10.23;;;2.50;;
60722;SDS011;46574;52.818;6.516;2023-02-03T05:09:07;6.85;;;2.30;;
60722;SDS011;46574;52.818;6.516;2023-02-03T05:11:33;6.03;;;2.30;;
60722;SDS011;46574;52.818;6.516;2023-02-03T05:13:59;9.57;;;2.80;;
60722;SDS011;46574;52.818;6.516;2023-02-03T05:16:24;7.82;;;2.35;;
60722;SDS011;46574;52.818;6.516;2023-02-03T05:18:50;7.80;;;2.20;;
60722;SDS011;46574;52.818;6.516;2023-02-03T05:21:16;7.68;;;2.65;;
60722;SDS011;46574;52.818;6.516;2023-02-03T05:23:42;9.05;;;2.80;;
60722;SDS011;46574;52.818;6.516;2023-02-03T05:26:08;6.68;;;2.50;;
60722;SDS011;46574;52.818;6.516;2023-02-03T05:28:34;6.47;;;2.10;;
60722;SDS011;46574;52.818;6.516;2023-02-03T05:31:00;8.35;;;2.67;;
60722;SDS011;46574;52.818;6.516;2023-02-03T05:33:26;9.10;;;2.65;;
60722;SDS011;46574;52.818;6.516;2023-02-03T05:35:52;12.50;;;3.10;;
60722;SDS011;46574;52.818;6.516;2023-02-03T05:38:18;9.70;;;2.40;;
60722;SDS011;46574;52.818;6.516;2023-02-03T05:40:47;7.97;;;2.70;;
60722;SDS011;46574;52.818;6.516;2023-02-03T05:43:32;7.43;;;2.55;;
60722;SDS011;46574;52.818;6.516;2023-02-03T05:46:01;7.35;;;2.40;;
60722;SDS011;46574;52.818;6.516;2023-02-03T05:48:28;14.00;;;2.83;;
60722;SDS011;46574;52.818;6.516;2023-02-03T05:50:54;9.10;;;2.60;;
60722;SDS011;46574;52.818;6.516;2023-02-03T05:53:20;8.05;;;2.75;;
60722;SDS011;46574;52.818;6.516;2023-02-03T05:55:45;6.78;;;2.38;;
60722;SDS011;46574;52.818;6.516;2023-02-03T05:58:11;9.60;;;2.40;;
60722;SDS011;46574;52.818;6.516;2023-02-03T06:00:37;9.00;;;2.67;;
60722;SDS011;46574;52.818;6.516;2023-02-03T06:03:03;7.13;;;2.55;;
60722;SDS011;46574;52.818;6.516;2023-02-03T06:05:30;6.18;;;2.45;;
60722;SDS011;46574;52.818;6.516;2023-02-03T06:07:57;9.57;;;2.92;;
60722;SDS011;46574;52.818;6.516;2023-02-03T06:10:23;6.78;;;2.70;;
60722;SDS011;46574;52.818;6.516;2023-02-03T06:12:49;7.65;;;2.50;;
60722;SDS011;46574;52.818;6.516;2023-02-03T06:15:15;8.48;;;2.50;;
60722;SDS011;46574;52.818;6.516;2023-02-03T06:17:44;6.22;;;2.50;;
60722;SDS011;46574;52.818;6.516;2023-02-03T06:20:11;6.13;;;2.42;;
60722;SDS011;46574;52.818;6.516;2023-02-03T06:22:38;7.47;;;3.15;;
60722;SDS011;46574;52.818;6.516;2023-02-03T06:25:04;6.07;;;2.45;;
60722;SDS011;46574;52.818;6.516;2023-02-03T06:27:30;7.88;;;2.55;;
60722;SDS011;46574;52.818;6.516;2023-02-03T06:29:56;9.13;;;3.38;;
60722;SDS011;46574;52.818;6.516;2023-02-03T06:32:21;9.52;;;3.20;;
60722;SDS011;46574;52.818;6.516;2023-02-03T06:34:47;7.13;;;3.13;;
60722;SDS011;46574;52.818;6.516;2023-02-03T06:37:13;11.10;;;3.22;;
60722;SDS011;46574;52.818;6.516;2023-02-03T06:39:39;6.53;;;2.83;;
60722;SDS011;46574;52.818;6.516;2023-02-03T06:42:05;11.57;;;3.20;;
60722;SDS011;46574;52.818;6.516;2023-02-03T06:44:30;7.82;;;3.63;;
60722;SDS011;46574;52.818;6.516;2023-02-03T06:46:56;9.77;;;3.13;;
60722;SDS011;46574;52.818;6.516;2023-02-03T06:49:22;8.35;;;3.33;;
60722;SDS011;46574;52.818;6.516;2023-02-03T06:51:48;8.38;;;2.65;;
60722;SDS011;46574;52.818;6.516;2023-02-03T06:54:14;10.15;;;3.00;;
60722;SDS011;46574;52.818;6.516;2023-02-03T06:56:40;7.85;;;2.88;;
60722;SDS011;46574;52.818;6.516;2023-02-03T06:59:05;13.90;;;2.83;;
60722;SDS011;46574;52.818;6.516;2023-02-03T07:01:32;10.35;;;2.95;;
60722;SDS011;46574;52.818;6.516;2023-02-03T07:03:58;9.48;;;3.13;;
60722;SDS011;46574;52.818;6.516;2023-02-03T07:06:24;10.30;;;3.25;;
60722;SDS011;46574;52.818;6.516;2023-02-03T07:08:53;9.65;;;3.00;;
60722;SDS011;46574;52.818;6.516;2023-02-03T07:11:19;9.88;;;2.80;;
60722;SDS011;46574;52.818;6.516;2023-02-03T07:13:45;10.45;;;2.83;;
60722;SDS011;46574;52.818;6.516;2023-02-03T07:16:11;8.00;;;2.90;;
60722;SDS011;46574;52.818;6.516;2023-02-03T07:18:36;9.52;;;2.80;;
60722;SDS011;46574;52.818;6.516;2023-02-03T07:21:03;9.48;;;2.85;;
60722;SDS011;46574;52.818;6.516;2023-02-03T07:23:30;9.23;;;3.47;;
60722;SDS011;46574;52.818;6.516;2023-02-03T07:25:58;10.23;;;3.30;;
60722;SDS011;46574;52.818;6.516;2023-02-03T07:28:24;9.85;;;2.78;;
60722;SDS011;46574;52.818;6.516;2023-02-03T07:30:49;10.02;;;3.13;;
60722;SDS011;46574;52.818;6.516;2023-02-03T07:33:15;11.50;;;3.47;;
60722;SDS011;46574;52.818;6.516;2023-02-03T07:35:41;9.88;;;3.10;;
60722;SDS011;46574;52.818;6.516;2023-02-03T07:38:06;12.20;;;3.25;;
60722;SDS011;46574;52.818;6.516;2023-02-03T07:40:32;10.80;;;3.38;;
60722;SDS011;46574;52.818;6.516;2023-02-03T07:42:57;11.57;;;3.60;;
60722;SDS011;46574;52.818;6.516;2023-02-03T07:45:23;8.57;;;2.75;;
60722;SDS011;46574;52.818;6.516;2023-02-03T07:47:50;11.88;;;3.60;;
60722;SDS011;46574;52.818;6.516;2023-02-03T07:50:16;10.65;;;3.95;;
60722;SDS011;46574;52.818;6.516;2023-02-03T07:52:42;9.98;;;3.25;;
60722;SDS011;46574;52.818;6.516;2023-02-03T07:55:08;10.00;;;3.65;;
60722;SDS011;46574;52.818;6.516;2023-02-03T07:57:34;10.32;;;3.20;;
60722;SDS011;46574;52.818;6.516;2023-02-03T08:00:01;13.13;;;3.40;;
60722;SDS011;46574;52.818;6.516;2023-02-03T08:02:27;10.80;;;4.50;;
60722;SDS011;46574;52.818;6.516;2023-02-03T08:04:53;10.35;;;4.03;;
60722;SDS011;46574;52.818;6.516;2023-02-03T08:07:21;13.88;;;4.10;;
60722;SDS011;46574;52.818;6.516;2023-02-03T08:09:47;9.35;;;3.50;;
60722;SDS011;46574;52.818;6.516;2023-02-03T08:12:13;9.77;;;4.47;;
60722;SDS011;46574;52.818;6.516;2023-02-03T08:14:38;9.90;;;4.03;;
60722;SDS011;46574;52.818;6.516;2023-02-03T08:17:04;11.48;;;3.53;;
60722;SDS011;46574;52.818;6.516;2023-02-03T08:19:29;11.60;;;4.55;;
60722;SDS011;46574;52.818;6.516;2023-02-03T08:21:55;9.75;;;3.70;;
60722;SDS011;46574;52.818;6.516;2023-02-03T08:24:23;10.65;;;4.10;;
60722;SDS011;46574;52.818;6.516;2023-02-03T08:26:48;11.85;;;4.20;;
60722;SDS011;46574;52.818;6.516;2023-02-03T08:29:14;14.43;;;3.90;;
60722;SDS011;46574;52.818;6.516;2023-02-03T08:31:40;13.32;;;4.38;;
60722;SDS011;46574;52.818;6.516;2023-02-03T08:34:06;10.70;;;3.70;;
60722;SDS011;46574;52.818;6.516;2023-02-03T08:36:32;9.10;;;4.07;;
60722;SDS011;46574;52.818;6.516;2023-02-03T08:38:57;11.35;;;3.97;;
60722;SDS011;46574;52.818;6.516;2023-02-03T08:41:23;15.07;;;3.88;;
60722;SDS011;46574;52.818;6.516;2023-02-03T08:43:49;10.40;;;3.78;;
60722;SDS011;46574;52.818;6.516;2023-02-03T08:46:14;11.98;;;4.57;;
60722;SDS011;46574;52.818;6.516;2023-02-03T08:48:40;9.73;;;3.88;;
60722;SDS011;46574;52.818;6.516;2023-02-03T08:51:13;14.63;;;4.82;;
60722;SDS011;46574;52.818;6.516;2023-02-03T08:53:41;11.90;;;3.92;;
60722;SDS011;46574;52.818;6.516;2023-02-03T08:56:08;12.50;;;3.55;;
60722;SDS011;46574;52.818;6.516;2023-02-03T08:58:36;11.25;;;5.38;;
60722;SDS011;46574;52.818;6.516;2023-02-03T09:01:06;10.93;;;4.60;;
60722;SDS011;46574;52.818;6.516;2023-02-03T09:03:37;6.93;;;3.65;;
60722;SDS011;46574;52.818;6.516;2023-02-03T09:06:04;13.88;;;5.05;;
60722;SDS011;46574;52.818;6.516;2023-02-03T09:08:31;10.13;;;4.13;;
60722;SDS011;46574;52.818;6.516;2023-02-03T09:10:56;13.00;;;3.65;;
60722;SDS011;46574;52.818;6.516;2023-02-03T09:13:22;13.43;;;4.07;;
60722;SDS011;46574;52.818;6.516;2023-02-03T09:15:48;12.52;;;3.72;;
60722;SDS011;46574;52.818;6.516;2023-02-03T09:18:13;9.73;;;3.80;;
60722;SDS011;46574;52.818;6.516;2023-02-03T09:20:39;8.15;;;3.60;;
60722;SDS011;46574;52.818;6.516;2023-02-03T09:23:05;11.52;;;3.63;;
60722;SDS011;46574;52.818;6.516;2023-02-03T09:25:31;8.88;;;3.72;;
60722;SDS011;46574;52.818;6.516;2023-02-03T09:27:57;12.80;;;3.67;;
60722;SDS011;46574;52.818;6.516;2023-02-03T09:30:25;10.80;;;4.00;;
60722;SDS011;46574;52.818;6.516;2023-02-03T09:32:53;10.27;;;3.70;;
60722;SDS011;46574;52.818;6.516;2023-02-03T09:35:20;16.00;;;3.95;;
60722;SDS011;46574;52.818;6.516;2023-02-03T09:37:47;11.70;;;3.75;;
60722;SDS011;46574;52.818;6.516;2023-02-03T09:40:34;12.38;;;3.80;;
60722;SDS011;46574;52.818;6.516;2023-02-03T09:43:34;12.80;;;4.75;;
60722;SDS011;46574;52.818;6.516;2023-02-03T09:46:20;10.63;;;4.35;;
60722;SDS011;46574;52.818;6.516;2023-02-03T09:48:50;12.32;;;3.85;;
60722;SDS011;46574;52.818;6.516;2023-02-03T09:51:21;15.90;;;4.13;;
60722;SDS011;46574;52.818;6.516;2023-02-03T09:54:04;11.68;;;3.90;;
60722;SDS011;46574;52.818;6.516;2023-02-03T09:56:40;11.18;;;4.10;;
60722;SDS011;46574;52.818;6.516;2023-02-03T09:59:14;16.70;;;4.85;;
60722;SDS011;46574;52.818;6.516;2023-02-03T10:01:42;10.68;;;3.95;;
60722;SDS011;46574;52.818;6.516;2023-02-03T10:06:57;15.43;;;4.68;;
60722;SDS011;46574;52.818;6.516;2023-02-03T10:12:35;14.77;;;3.85;;
60722;SDS011;46574;52.818;6.516;2023-02-03T10:18:29;19.13;;;4.57;;
60722;SDS011;46574;52.818;6.516;2023-02-03T10:20:59;16.17;;;4.57;;
60722;SDS011;46574;52.818;6.516;2023-02-03T10:23:29;15.73;;;4.68;;
60722;SDS011;46574;52.818;6.516;2023-02-03T10:26:12;14.95;;;4.32;;
60722;SDS011;46574;52.818;6.516;2023-02-03T10:29:02;16.33;;;4.63;;
60722;SDS011;46574;52.818;6.516;2023-02-03T10:31:40;14.63;;;4.30;;
60722;SDS011;46574;52.818;6.516;2023-02-03T10:34:11;18.80;;;4.72;;
60722;SDS011;46574;52.818;6.516;2023-02-03T10:41:58;16.27;;;4.55;;
60722;SDS011;46574;52.818;6.516;2023-02-03T10:44:28;15.93;;;4.78;;
60722;SDS011;46574;52.818;6.516;2023-02-03T10:50:06;18.90;;;4.80;;
60722;SDS011;46574;52.818;6.516;2023-02-03T10:52:39;20.13;;;5.88;;
60722;SDS011;46574;52.818;6.516;2023-02-03T10:55:05;15.45;;;4.55;;
60722;SDS011;46574;52.818;6.516;2023-02-03T10:57:35;19.33;;;5.13;;
60722;SDS011;46574;52.818;6.516;2023-02-03T11:00:05;15.48;;;5.47;;
60722;SDS011;46574;52.818;6.516;2023-02-03T11:03:13;21.63;;;4.88;;
60722;SDS011;46574;52.818;6.516;2023-02-03T11:05:46;19.60;;;5.07;;
60722;SDS011;46574;52.818;6.516;2023-02-03T11:08:30;22.02;;;5.82;;
60722;SDS011;46574;52.818;6.516;2023-02-03T11:11:03;20.65;;;5.25;;
60722;SDS011;46574;52.818;6.516;2023-02-03T11:13:33;22.38;;;5.57;;
60722;SDS011;46574;52.818;6.516;2023-02-03T11:16:00;20.88;;;5.45;;
60722;SDS011;46574;52.818;6.516;2023-02-03T11:18:34;21.85;;;5.45;;
60722;SDS011;46574;52.818;6.516;2023-02-03T11:21:05;21.90;;;5.43;;
60722;SDS011;46574;52.818;6.516;2023-02-03T11:24:23;24.92;;;7.18;;
60722;SDS011;46574;52.818;6.516;2023-02-03T11:26:31;19.83;;;6.25;;
60722;SDS011;46574;52.818;6.516;2023-02-03T11:29:00;21.83;;;6.05;;
60722;SDS011;46574;52.818;6.516;2023-02-03T11:31:29;18.30;;;4.68;;
60722;SDS011;46574;52.818;6.516;2023-02-03T11:34:04;21.83;;;5.70;;
60722;SDS011;46574;52.818;6.516;2023-02-03T11:36:38;18.58;;;5.20;;
60722;SDS011;46574;52.818;6.516;2023-02-03T11:39:46;20.88;;;5.40;;
60722;SDS011;46574;52.818;6.516;2023-02-03T11:41:54;18.77;;;4.78;;
60722;SDS011;46574;52.818;6.516;2023-02-03T11:44:24;23.17;;;5.63;;
60722;SDS011;46574;52.818;6.516;2023-02-03T11:47:03;18.27;;;5.35;;
60722;SDS011;46574;52.818;6.516;2023-02-03T11:52:49;21.88;;;5.40;;
60722;SDS011;46574;52.818;6.516;2023-02-03T11:55:44;21.83;;;6.03;;
60722;SDS011;46574;52.818;6.516;2023-02-03T12:01:03;20.02;;;4.93;;
60722;SDS011;46574;52.818;6.516;2023-02-03T12:06:57;23.58;;;5.30;;
60722;SDS011;46574;52.818;6.516;2023-02-03T12:15:38;21.10;;;5.45;;
60722;SDS011;46574;52.818;6.516;2023-02-03T12:18:30;20.92;;;5.47;;
60722;SDS011;46574;52.818;6.516;2023-02-03T12:24:11;22.48;;;5.50;;
60722;SDS011;46574;52.818;6.516;2023-02-03T12:29:45;24.33;;;5.18;;
60722;SDS011;46574;52.818;6.516;2023-02-03T12:32:20;23.75;;;5.15;;
60722;SDS011;46574;52.818;6.516;2023-02-03T12:37:28;19.70;;;4.80;;
60722;SDS011;46574;52.818;6.516;2023-02-03T12:40:21;22.05;;;5.40;;
60722;SDS011;46574;52.818;6.516;2023-02-03T12:54:37;24.92;;;5.55;;
60722;SDS011;46574;52.818;6.516;2023-02-03T12:57:26;25.73;;;5.75;;
60722;SDS011;46574;52.818;6.516;2023-02-03T13:00:19;31.02;;;6.32;;
60722;SDS011;46574;52.818;6.516;2023-02-03T13:02:56;23.85;;;6.78;;
60722;SDS011;46574;52.818;6.516;2023-02-03T13:08:49;23.92;;;5.50;;
60722;SDS011;46574;52.818;6.516;2023-02-03T13:11:33;25.33;;;5.40;;
60722;SDS011;46574;52.818;6.516;2023-02-03T13:14:19;25.20;;;5.78;;
60722;SDS011;46574;52.818;6.516;2023-02-03T13:17:00;20.20;;;5.00;;
60722;SDS011;46574;52.818;6.516;2023-02-03T13:20:01;26.42;;;6.13;;
60722;SDS011;46574;52.818;6.516;2023-02-03T13:22:37;22.33;;;4.88;;
60722;SDS011;46574;52.818;6.516;2023-02-03T13:25:05;26.75;;;6.38;;
60722;SDS011;46574;52.818;6.516;2023-02-03T13:27:45;26.38;;;5.45;;
60722;SDS011;46574;52.818;6.516;2023-02-03T13:30:25;27.73;;;6.00;;
60722;SDS011;46574;52.818;6.516;2023-02-03T13:36:08;25.30;;;5.95;;
60722;SDS011;46574;52.818;6.516;2023-02-03T13:41:50;26.90;;;5.97;;
60722;SDS011;46574;52.818;6.516;2023-02-03T13:44:24;27.30;;;6.25;;
60722;SDS011;46574;52.818;6.516;2023-02-03T13:46:52;22.38;;;6.22;;
60722;SDS011;46574;52.818;6.516;2023-02-03T13:49:22;33.80;;;6.50;;
60722;SDS011;46574;52.818;6.516;2023-02-03T13:51:54;26.77;;;6.07;;
60722;SDS011;46574;52.818;6.516;2023-02-03T13:54:31;23.70;;;5.22;;
60722;SDS011;46574;52.818;6.516;2023-02-03T13:57:03;25.05;;;6.20;;
60722;SDS011;46574;52.818;6.516;2023-02-03T13:59:42;20.90;;;6.30;;
60722;SDS011;46574;52.818;6.516;2023-02-03T14:15:28;22.50;;;5.78;;
60722;SDS011;46574;52.818;6.516;2023-02-03T14:17:56;20.98;;;5.63;;
60722;SDS011;46574;52.818;6.516;2023-02-03T14:22:55;33.33;;;7.55;;
60722;SDS011;46574;52.818;6.516;2023-02-03T14:25:28;26.40;;;6.85;;
60722;SDS011;46574;52.818;6.516;2023-02-03T14:27:59;23.20;;;5.28;;
60722;SDS011;46574;52.818;6.516;2023-02-03T14:30:29;25.70;;;5.60;;
60722;SDS011;46574;52.818;6.516;2023-02-03T14:33:01;26.63;;;6.63;;
60722;SDS011;46574;52.818;6.516;2023-02-03T14:35:31;28.40;;;6.32;;
60722;SDS011;46574;52.818;6.516;2023-02-03T14:38:06;24.98;;;5.55;;
60722;SDS011;46574;52.818;6.516;2023-02-03T14:40:40;24.40;;;6.05;;
60722;SDS011;46574;52.818;6.516;2023-02-03T14:43:36;22.85;;;5.85;;
60722;SDS011;46574;52.818;6.516;2023-02-03T14:46:31;23.23;;;5.78;;
60722;SDS011;46574;52.818;6.516;2023-02-03T14:49:41;22.92;;;5.75;;
60722;SDS011;46574;52.818;6.516;2023-02-03T14:57:54;27.35;;;5.53;;
60722;SDS011;46574;52.818;6.516;2023-02-03T15:00:27;18.42;;;4.63;;
60722;SDS011;46574;52.818;6.516;2023-02-03T15:05:37;18.45;;;4.55;;
60722;SDS011;46574;52.818;6.516;2023-02-03T15:08:03;16.77;;;4.53;;
60722;SDS011;46574;52.818;6.516;2023-02-03T15:10:30;17.40;;;3.92;;
60722;SDS011;46574;52.818;6.516;2023-02-03T15:13:25;20.23;;;4.57;;
60722;SDS011;46574;52.818;6.516;2023-02-03T15:15:55;16.45;;;4.03;;
60722;SDS011;46574;52.818;6.516;2023-02-03T15:18:30;14.27;;;3.75;;
60722;SDS011;46574;52.818;6.516;2023-02-03T15:20:59;16.48;;;3.88;;
60722;SDS011;46574;52.818;6.516;2023-02-03T15:23:29;11.75;;;3.75;;
60722;SDS011;46574;52.818;6.516;2023-02-03T15:29:00;13.43;;;3.45;;
60722;SDS011;46574;52.818;6.516;2023-02-03T15:34:14;16.25;;;4.43;;
60722;SDS011;46574;52.818;6.516;2023-02-03T15:36:47;14.63;;;3.38;;
60722;SDS011;46574;52.818;6.516;2023-02-03T15:41:46;14.23;;;2.90;;
60722;SDS011;46574;52.818;6.516;2023-02-03T15:44:23;14.38;;;3.20;;
60722;SDS011;46574;52.818;6.516;2023-02-03T15:46:58;11.77;;;2.38;;
60722;SDS011;46574;52.818;6.516;2023-02-03T15:52:07;12.65;;;2.88;;
60722;SDS011;46574;52.818;6.516;2023-02-03T15:54:38;13.80;;;2.95;;
60722;SDS011;46574;52.818;6.516;2023-02-03T15:57:13;18.92;;;3.60;;
60722;SDS011;46574;52.818;6.516;2023-02-03T15:59:43;17.15;;;3.65;;
60722;SDS011;46574;52.818;6.516;2023-02-03T16:02:18;10.15;;;3.08;;
60722;SDS011;46574;52.818;6.516;2023-02-03T16:04:47;15.32;;;4.05;;
60722;SDS011;46574;52.818;6.516;2023-02-03T16:07:18;15.15;;;3.47;;
60722;SDS011;46574;52.818;6.516;2023-02-03T16:09:58;15.25;;;4.28;;
60722;SDS011;46574;52.818;6.516;2023-02-03T16:12:28;26.40;;;4.95;;
60722;SDS011;46574;52.818;6.516;2023-02-03T16:14:55;19.10;;;4.22;;
60722;SDS011;46574;52.818;6.516;2023-02-03T16:17:24;17.37;;;4.27;;
60722;SDS011;46574;52.818;6.516;2023-02-03T16:19:51;20.98;;;4.80;;
60722;SDS011;46574;52.818;6.516;2023-02-03T16:22:38;22.20;;;4.68;;
60722;SDS011;46574;52.818;6.516;2023-02-03T16:25:16;27.17;;;5.70;;
60722;SDS011;46574;52.818;6.516;2023-02-03T16:28:13;27.55;;;8.02;;
60722;SDS011;46574;52.818;6.516;2023-02-03T16:31:00;26.65;;;7.75;;
60722;SDS011;46574;52.818;6.516;2023-02-03T16:33:52;24.20;;;5.63;;
60722;SDS011;46574;52.818;6.516;2023-02-03T16:36:40;22.50;;;6.47;;
60722;SDS011;46574;52.818;6.516;2023-02-03T16:39:26;31.88;;;8.27;;
60722;SDS011;46574;52.818;6.516;2023-02-03T16:42:14;29.17;;;7.20;;
60722;SDS011;46574;52.818;6.516;2023-02-03T16:45:02;27.83;;;5.65;;
60722;SDS011;46574;52.818;6.516;2023-02-03T16:47:54;32.13;;;8.48;;
60722;SDS011;46574;52.818;6.516;2023-02-03T16:50:38;26.98;;;7.28;;
60722;SDS011;46574;52.818;6.516;2023-02-03T16:53:18;27.30;;;8.48;;
60722;SDS011;46574;52.818;6.516;2023-02-03T16:58:12;27.90;;;9.45;;
60722;SDS011;46574;52.818;6.516;2023-02-03T17:00:38;27.70;;;7.35;;
60722;SDS011;46574;52.818;6.516;2023-02-03T17:03:11;28.35;;;7.57;;
60722;SDS011;46574;52.818;6.516;2023-02-03T17:05:39;29.00;;;9.07;;